Terminal Aerodrome Forecast
Issued by NWS North Platte, NE

Home | Current Version | Previous Version | Text Only | Print | Product List | Glossary On
Versions: 1 2 3 4 5 6 7 8 9 10 11 12 13
000
FTUS43 KLBF 271131
TAFVTN
TAF
KVTN 271131Z 2712/2812 17014KT P6SM FEW250 WS020/19040KT
     FM271400 18014G24KT P6SM SCT250
     FM271600 18022G29KT P6SM SCT250
     FM280000 18014G22KT P6SM VCTS BKN060CB OVC200 PROB30 2800/2804
      P6SM -TSRA BKN050CB
     FM280400 20013KT P6SM BKN050 BKN250
     FM280600 29010KT P6SM SCT250=

USA.gov is the U.S. government's official web portal to all federal, state and local government web resources and services.